Terminal Aerodrome Forecast
Issued by NWS

Home | Current Version | Previous Version | Text Only | Print | Product List | Glossary On
Versions: 1 2 3 4 5 6 7 8 9 10 11 12 13 14 15 16 17 18
000
FTUS43 KLSX 170500
TAFSUS
TAF
KSUS 170520Z 1706/1806 16007KT P6SM BKN250
     FM171500 22007KT P6SM SCT040 BKN150
     FM172000 28010KT P6SM BKN070
     FM180300 VRB05KT P6SM OVC050=

USA.gov is the U.S. government's official web portal to all federal, state and local government web resources and services.